Time;durP1;ratioP1;P1;durP2;ratioP2;P2;SDS_P1;SDS_P2;PMS_P1;PMS_P2;Temp;Humidity;BMP_temperature;BMP_pressure;BME280_temperature;BME280_humidity;BME280_pressure;Samples;Min_cycle;Max_cycle;Signal;HPM_P1;HPM_P2
2023/08/21 00:00:19;;;;;;;4.82;1.20;;;;;;;20.14;100.00;102271.56;5090366;28;20020;-37
2023/08/21 00:02:44;;;;;;;4.88;1.48;;;;;;;20.15;100.00;102268.56;5090338;28;20062;-37
2023/08/21 00:05:10;;;;;;;6.53;1.52;;;;;;;20.11;100.00;102266.63;5090222;28;20059;-37
2023/08/21 00:07:35;;;;;;;4.85;1.63;;;;;;;20.04;100.00;102264.06;5089650;28;20073;-37
2023/08/21 00:10:01;;;;;;;5.28;1.48;;;;;;;20.09;100.00;102269.59;5081644;28;20063;-37
2023/08/21 00:12:26;;;;;;;6.22;2.10;;;;;;;20.09;100.00;102266.03;5076114;28;20109;-37
2023/08/21 00:14:51;;;;;;;4.38;1.50;;;;;;;20.10;100.00;102267.69;5076291;28;20055;-37
2023/08/21 00:17:17;;;;;;;4.65;1.75;;;;;;;19.95;100.00;102249.16;5075949;28;20044;-37
2023/08/21 00:19:42;;;;;;;6.30;1.40;;;;;;;19.91;100.00;102242.50;5076182;28;20024;-37
2023/08/21 00:22:07;;;;;;;3.47;1.60;;;;;;;19.99;100.00;102259.34;5076168;28;20028;-37
2023/08/21 00:24:33;;;;;;;4.90;1.75;;;;;;;19.94;100.00;102264.78;5076127;28;20468;-37
2023/08/21 00:26:58;;;;;;;3.65;1.45;;;;;;;19.87;100.00;102260.63;5076420;28;20016;-37
2023/08/21 00:29:23;;;;;;;5.65;1.85;;;;;;;19.82;100.00;102261.38;5076077;28;20029;-37
2023/08/21 00:31:49;;;;;;;4.95;1.60;;;;;;;19.84;100.00;102261.13;5076806;28;20028;-37
2023/08/21 00:34:14;;;;;;;4.78;1.70;;;;;;;19.70;100.00;102252.47;5076237;28;20420;-37
2023/08/21 00:36:39;;;;;;;7.35;1.60;;;;;;;19.74;100.00;102256.34;5076161;28;20024;-37
2023/08/21 00:39:06;;;;;;;5.28;1.48;;;;;;;19.76;100.00;102249.53;5075906;28;20104;-37
2023/08/21 00:41:33;;;;;;;5.20;1.40;;;;;;;19.58;100.00;102255.34;5076089;28;20093;-37
2023/08/21 00:43:59;;;;;;;3.45;1.40;;;;;;;19.58;100.00;102255.34;5075711;28;20029;-37
2023/08/21 00:46:24;;;;;;;5.63;1.65;;;;;;;19.39;100.00;102243.03;5076082;28;20032;-37
2023/08/21 00:48:50;;;;;;;7.00;1.65;;;;;;;19.41;100.00;102254.56;5075668;28;20449;-37
2023/08/21 00:51:16;;;;;;;5.82;2.30;;;;;;;19.38;100.00;102255.09;5075625;28;20031;-37
2023/08/21 00:53:42;;;;;;;6.07;1.85;;;;;;;19.32;100.00;102253.34;5075565;28;20105;-37
2023/08/21 00:56:08;;;;;;;5.68;1.92;;;;;;;19.32;100.00;102256.94;5075865;28;20067;-37
2023/08/21 00:58:33;;;;;;;5.38;1.60;;;;;;;19.31;100.00;102260.75;5075719;28;20040;-37
2023/08/21 01:00:59;;;;;;;5.88;1.70;;;;;;;19.32;100.00;102259.66;5075497;28;20479;-37
2023/08/21 01:03:24;;;;;;;6.93;1.95;;;;;;;19.34;100.00;102259.44;5076286;28;20341;-37
2023/08/21 01:05:50;;;;;;;5.85;1.80;;;;;;;19.29;100.00;102260.19;5075370;28;20048;-37
2023/08/21 01:08:37;;;;;;;5.22;1.75;;;;;;;19.33;100.00;102263.28;5075877;28;20029;-37
2023/08/21 01:11:07;;;;;;;4.30;1.60;;;;;;;19.26;100.00;102260.69;5075577;28;20467;-37
2023/08/21 01:13:47;;;;;;;5.25;1.98;;;;;;;19.33;100.00;102258.59;5075264;28;20103;-37
2023/08/21 01:16:14;;;;;;;5.43;1.98;;;;;;;19.32;100.00;102265.16;5075693;28;20058;-37
2023/08/21 01:18:41;;;;;;;6.57;1.85;;;;;;;19.42;100.00;102261.72;5075018;28;20017;-37
2023/08/21 01:21:07;;;;;;;5.38;1.70;;;;;;;19.47;100.00;102265.38;5074097;28;20029;-38
2023/08/21 01:23:37;;;;;;;5.97;1.80;;;;;;;19.49;100.00;102265.94;5075018;28;20028;-37
2023/08/21 01:26:03;;;;;;;4.55;1.70;;;;;;;19.38;100.00;102244.94;5074926;28;20024;-37
2023/08/21 01:28:30;;;;;;;4.65;1.80;;;;;;;19.45;100.00;102239.25;5075472;28;20028;-37
2023/08/21 01:31:08;;;;;;;5.47;1.95;;;;;;;19.47;100.00;102246.16;5074815;28;20075;-37
2023/08/21 01:33:38;;;;;;;3.97;1.67;;;;;;;19.38;100.00;102227.66;5074813;28;20024;-37
2023/08/21 01:36:04;;;;;;;6.75;2.05;;;;;;;19.43;100.00;102239.53;5074466;28;20029;-37
2023/08/21 01:38:32;;;;;;;6.80;1.63;;;;;;;19.40;100.00;102239.19;5074945;28;20035;-37
2023/08/21 01:40:58;;;;;;;4.63;1.50;;;;;;;19.26;100.00;102239.59;5074614;28;20024;-37
2023/08/21 01:43:24;;;;;;;5.05;1.70;;;;;;;19.30;100.00;102242.66;5074586;28;20100;-37
2023/08/21 01:45:49;;;;;;;6.75;1.90;;;;;;;19.19;100.00;102241.69;5074579;28;20024;-37
2023/08/21 01:48:14;;;;;;;4.95;1.67;;;;;;;19.11;100.00;102239.41;5074856;28;20449;-37
2023/08/21 01:50:40;;;;;;;3.13;1.40;;;;;;;19.08;100.00;102242.66;5074497;28;20021;-37
2023/08/21 01:53:05;;;;;;;3.50;1.35;;;;;;;18.91;100.00;102230.91;5074701;28;20443;-37
2023/08/21 01:55:32;;;;;;;5.93;1.67;;;;;;;18.93;100.00;102246.00;5074126;28;20013;-37
2023/08/21 01:57:57;;;;;;;3.85;1.48;;;;;;;18.96;100.00;102241.94;5074447;28;20048;-37
2023/08/21 02:00:22;;;;;;;;;;;;;;;19.12;100.00;102248.44;5074674;28;20029;-37
2023/08/21 02:02:48;;;;;;;5.87;1.77;;;;;;;18.96;100.00;102250.16;5074501;28;19913;-37
2023/08/21 02:05:13;;;;;;;;;;;;;;;19.11;100.00;102253.09;5074907;28;20703;-37
2023/08/21 02:07:38;;;;;;;4.38;1.70;;;;;;;18.87;100.00;102243.44;5075205;28;19908;-37
2023/08/21 02:10:04;;;;;;;6.38;1.80;;;;;;;18.89;100.00;102252.25;5074881;28;20029;-37
2023/08/21 02:12:29;;;;;;;;;;;;;;;19.07;100.00;102262.91;5074179;28;20029;-37
2023/08/21 02:14:55;;;;;;;6.30;1.63;;;;;;;18.86;100.00;102258.25;5074263;28;20018;-37
2023/08/21 02:17:20;;;;;;;;;;;;;;;19.01;100.00;102261.19;5074436;28;20251;-37
2023/08/21 02:19:45;;;;;;;5.20;1.80;;;;;;;18.88;100.00;102267.03;5074205;28;19939;-37
2023/08/21 02:22:10;;;;;;;;;;;;;;;19.02;100.00;102257.38;5074691;28;20259;-37
2023/08/21 02:24:36;;;;;;;8.70;2.93;;;;;;;18.84;100.00;102268.59;5073580;28;19908;-37
2023/08/21 02:27:03;;;;;;;;;;;;;;;19.01;100.00;102266.69;5074010;28;20304;-37
2023/08/21 02:29:28;;;;;;;5.57;2.00;;;;;;;18.84;100.00;102265.88;5073519;28;19912;-37
2023/08/21 02:31:53;;;;;;;5.68;2.05;;;;;;;18.87;100.00;102266.19;5074294;28;20112;-37
2023/08/21 02:34:19;;;;;;;4.25;2.25;;;;;;;18.78;100.00;102252.09;5073896;28;20026;-37
2023/08/21 02:36:44;;;;;;;;;;;;;;;19.03;100.00;102259.88;5074572;28;20052;-37
2023/08/21 02:39:09;;;;;;;6.30;2.33;;;;;;;18.94;100.00;102260.56;5073687;28;19908;-37
2023/08/21 02:41:34;;;;;;;4.90;2.25;;;;;;;18.91;100.00;102264.63;5073692;28;20050;-37
2023/08/21 02:44:00;;;;;;;6.90;2.17;;;;;;;18.88;100.00;102267.03;5073600;28;20029;-37
2023/08/21 02:46:25;;;;;;;;;;;;;;;19.05;100.00;102267.84;5074992;28;20021;-37
2023/08/21 02:48:50;;;;;;;7.30;2.47;;;;;;;18.74;100.00;102264.66;5073636;28;19905;-37
2023/08/21 02:51:16;;;;;;;;;;;;;;;18.86;100.00;102263.72;5073824;28;20239;-37
2023/08/21 02:53:41;;;;;;;4.25;2.00;;;;;;;18.62;100.00;102263.06;5073279;28;19912;-37
2023/08/21 02:56:06;;;;;;;3.63;2.00;;;;;;;18.57;100.00;102254.75;5074126;28;20032;-37
2023/08/21 02:58:32;;;;;;;7.00;2.42;;;;;;;18.58;100.00;102264.63;5074366;28;20340;-37
2023/08/21 03:00:57;;;;;;;;;;;;;;;18.76;100.00;102264.41;5074005;28;20020;-37
2023/08/21 03:03:22;;;;;;;6.15;2.17;;;;;;;18.61;100.00;102264.16;5073564;28;19908;-37
2023/08/21 03:05:48;;;;;;;;;;;;;;;18.77;100.00;102253.19;5073864;28;20028;-37
2023/08/21 03:08:13;;;;;;;5.63;2.60;;;;;;;18.53;100.00;102254.44;5073439;28;19908;-37
2023/08/21 03:10:38;;;;;;;;;;;;;;;18.60;100.00;102255.09;5073507;28;20270;-37
2023/08/21 03:13:04;;;;;;;5.43;2.42;;;;;;;18.37;100.00;102245.16;5073720;28;19908;-37
2023/08/21 03:15:29;;;;;;;;;;;;;;;18.56;100.00;102258.59;5074355;28;20060;-37
2023/08/21 03:17:55;;;;;;;6.87;2.50;;;;;;;18.49;100.00;102261.47;5073626;28;20301;-37
2023/08/21 03:20:20;;;;;;;4.90;2.05;;;;;;;18.41;100.00;102256.44;5073796;28;20270;-37
2023/08/21 03:22:46;;;;;;;;;;;;;;;18.55;100.00;102265.97;5074596;28;20063;-37
2023/08/21 03:25:11;;;;;;;4.45;2.22;;;;;;;18.39;100.00;102262.13;5073285;28;19904;-37
2023/08/21 03:27:39;;;;;;;8.27;2.78;;;;;;;18.37;100.00;102267.06;5073261;28;20040;-37
2023/08/21 03:30:05;;;;;;;5.03;2.20;;;;;;;18.38;100.00;102267.88;5073179;28;20055;-37
2023/08/21 03:32:32;;;;;;;5.32;2.55;;;;;;;18.33;100.00;102256.84;5074032;28;20364;-37
2023/08/21 03:34:57;;;;;;;6.80;2.80;;;;;;;18.26;100.00;102244.16;5072887;28;20075;-37
2023/08/21 03:37:22;;;;;;;;;;;;;;;18.51;100.00;102264.81;5074099;28;20056;-37
2023/08/21 03:39:48;;;;;;;6.43;2.63;;;;;;;18.33;100.00;102259.59;5073121;28;19909;-37
2023/08/21 03:42:13;;;;;;;;;;;;;;;18.50;100.00;102258.50;5074174;28;20368;-37
2023/08/21 03:44:39;;;;;;;5.20;2.40;;;;;;;18.29;100.00;102251.03;5073760;28;19940;-37
2023/08/21 03:47:05;;;;;;;5.50;2.70;;;;;;;18.23;100.00;102258.31;5077152;28;20676;-37
2023/08/21 03:49:30;;;;;;;;;;;;;;;18.41;100.00;102251.78;5077191;28;20052;-37
2023/08/21 03:51:55;;;;;;;4.63;2.83;;;;;;;18.17;100.00;102240.16;5077074;28;19961;-37
2023/08/21 03:54:21;;;;;;;;;;;;;;;18.37;100.00;102247.06;5076762;28;20274;-37
2023/08/21 03:56:46;;;;;;;5.47;2.50;;;;;;;18.26;100.00;102248.81;5076966;28;19990;-37
2023/08/21 03:59:11;;;;;;;;;;;;;;;18.38;100.00;102256.91;5077325;28;20339;-37
2023/08/21 04:01:37;;;;;;;4.23;2.40;;;;;;;18.18;100.00;102252.75;5076627;28;20003;-37
2023/08/21 04:04:02;;;;;;;;;;;;;;;18.32;100.00;102238.75;5076878;28;20298;-37
2023/08/21 04:06:27;;;;;;;9.43;3.05;;;;;;;18.20;100.00;102245.16;5076769;28;20340;-37
2023/08/21 04:08:52;;;;;;;7.80;3.78;;;;;;;18.18;100.00;102255.50;5076456;28;20035;-37
2023/08/21 04:11:18;;;;;;;7.82;2.90;;;;;;;18.17;100.00;102256.59;5076420;28;20025;-37
2023/08/21 04:13:43;;;;;;;;;;;;;;;18.33;100.00;102262.31;5076767;28;20021;-37
2023/08/21 04:16:09;;;;;;;6.50;2.77;;;;;;;18.19;100.00;102270.03;5076240;28;19922;-37
2023/08/21 04:18:36;;;;;;;;;;;;;;;18.31;100.00;102262.56;5076411;28;20362;-37
2023/08/21 04:21:01;;;;;;;;;;;;;;;18.31;100.00;102262.56;5076880;28;19955;-37
2023/08/21 04:23:27;;;;;;;6.10;2.85;;;;;;;18.11;100.00;102259.50;5075888;28;20364;-37
2023/08/21 04:25:52;;;;;;;7.53;3.10;;;;;;;18.09;100.00;102269.84;5075886;28;20029;-37
2023/08/21 04:28:17;;;;;;;;;;;;;;;18.24;100.00;102265.47;5076494;28;20024;-37
2023/08/21 04:30:43;;;;;;;5.68;2.63;;;;;;;18.09;100.00;102248.78;5076557;28;19915;-37
2023/08/21 04:33:08;;;;;;;5.47;2.97;;;;;;;18.15;100.00;102266.09;5076322;28;20090;-37
2023/08/21 04:35:37;;;;;;;;;;;;;;;18.25;100.00;102271.75;5076858;28;20028;-37
2023/08/21 04:38:03;;;;;;;4.63;3.13;;;;;;;18.02;100.00;102257.16;5075848;28;19912;-37
2023/08/21 04:40:28;;;;;;;;;;;;;;;18.23;100.00;102268.44;5076337;28;20016;-37
2023/08/21 04:42:53;;;;;;;5.50;2.93;;;;;;;18.09;100.00;102273.41;5076414;28;19908;-37
2023/08/21 04:45:18;;;;;;;6.22;3.00;;;;;;;18.15;100.00;102275.16;5075759;28;20024;-37
2023/08/21 04:47:44;;;;;;;;;;;;;;;18.26;100.00;102279.75;5076768;28;20032;-37
2023/08/21 04:50:09;;;;;;;6.67;3.07;;;;;;;18.19;100.00;102279.06;5076251;28;19957;-37
2023/08/21 04:52:34;;;;;;;;;;;;;;;18.34;100.00;102280.41;5076068;28;20262;-37
2023/08/21 04:55:00;;;;;;;9.02;3.08;;;;;;;18.30;100.00;102282.81;5075570;28;19911;-37
2023/08/21 04:57:25;;;;;;;6.65;3.10;;;;;;;18.34;100.00;102289.44;5075763;28;20044;-37
2023/08/21 04:59:50;;;;;;;;;;;;;;;18.44;100.00;102284.13;5075500;28;20056;-37
2023/08/21 05:02:16;;;;;;;7.55;3.35;;;;;;;18.33;100.00;102265.88;5075490;28;19909;-37
2023/08/21 05:04:41;;;;;;;7.82;3.47;;;;;;;18.26;100.00;102279.75;5075469;28;20113;-37
2023/08/21 05:07:06;;;;;;;;;;;;;;;18.46;100.00;102287.47;5075806;28;20066;-37
2023/08/21 05:09:32;;;;;;;6.47;3.33;;;;;;;18.37;100.00;102288.13;5075318;28;19962;-37
2023/08/21 05:11:58;;;;;;;7.65;3.15;;;;;;;18.32;100.00;102294.34;5074981;28;20028;-37
2023/08/21 05:14:23;;;;;;;;;;;;;;;18.50;100.00;102304.25;5075891;28;20024;-37
2023/08/21 05:16:49;;;;;;;9.10;4.03;;;;;;;18.31;100.00;102294.59;5075460;28;20255;-37
2023/08/21 05:19:14;;;;;;;;;;;;;;;18.54;100.00;102310.88;5075698;28;20360;-37
2023/08/21 05:21:40;;;;;;;8.18;3.13;;;;;;;18.39;100.00;102286.78;5075078;28;19915;-37
2023/08/21 05:24:05;;;;;;;;;;;;;;;18.56;100.00;102297.75;5075430;28;20107;-37
2023/08/21 05:26:31;;;;;;;8.23;3.80;;;;;;;18.52;100.00;102307.56;5074719;28;19951;-37
2023/08/21 05:28:56;;;;;;;7.57;3.92;;;;;;;18.50;100.00;102306.97;5075698;28;20035;-37
2023/08/21 05:31:22;;;;;;;8.82;3.92;;;;;;;18.56;100.00;102303.25;5075195;28;20029;-37
2023/08/21 05:33:47;;;;;;;;;;;;;;;18.66;100.00;102306.16;5075230;28;20028;-37
2023/08/21 05:36:12;;;;;;;10.10;4.10;;;;;;;18.61;100.00;102306.06;5074561;28;20003;-37
2023/08/21 05:38:37;;;;;;;;;;;;;;;18.73;100.00;102314.22;5075080;28;20679;-37
2023/08/21 05:41:03;;;;;;;7.60;3.90;;;;;;;18.57;100.00;102293.94;5074662;28;19920;-37
2023/08/21 05:43:28;;;;;;;;;;;;;;;18.78;100.00;102314.28;5075035;28;20255;-37
2023/08/21 05:45:54;;;;;;;9.35;3.97;;;;;;;18.67;100.00;102313.28;5075380;28;20006;-37
2023/08/21 05:48:19;;;;;;;7.35;3.83;;;;;;;18.68;100.00;102317.69;5074229;28;20422;-37
2023/08/21 05:50:44;;;;;;;8.18;4.30;;;;;;;18.71;100.00;102317.22;5074485;28;20025;-37
2023/08/21 05:53:10;;;;;;;;;;;;;;;18.88;100.00;102322.66;5074646;28;20111;-37
2023/08/21 05:55:40;;;;;;;6.68;4.22;;;;;;;18.71;100.00;102317.22;5074133;28;19950;-37
2023/08/21 05:58:05;;;;;;;9.38;4.60;;;;;;;18.71;100.00;102309.00;5074922;28;20040;-37
2023/08/21 06:00:30;;;;;;;;;;;;;;;18.91;100.00;102321.34;5074676;28;20077;-37
2023/08/21 06:02:56;;;;;;;5.35;4.13;;;;;;;18.75;100.00;102312.91;5074266;28;20002;-37
2023/08/21 06:05:21;;;;;;;;;;;;;;;18.93;100.00;102325.50;5074667;28;20024;-37
2023/08/21 06:07:46;;;;;;;7.90;3.97;;;;;;;18.95;100.00;102320.59;5073990;28;19912;-37
2023/08/21 06:10:12;;;;;;;;;;;;;;;19.14;100.00;102321.16;5074200;28;20354;-37
2023/08/21 06:12:39;;;;;;;7.47;4.47;;;;;;;19.16;100.00;102320.88;5074341;28;20007;-37
2023/08/21 06:15:07;;;;;;;8.77;4.80;;;;;;;19.22;100.00;102317.97;5074055;28;20099;-37
2023/08/21 06:17:32;;;;;;;8.18;4.30;;;;;;;19.28;100.00;102319.72;5073920;28;20016;-37
2023/08/21 06:19:58;;;;;;;;;;;;;;;19.47;100.00;102319.38;5074378;28;20079;-37
2023/08/21 06:22:23;;;;;;;7.78;4.13;;;;;;;19.38;100.00;102321.75;5073626;28;19953;-37
2023/08/21 06:24:49;;;;;;;6.80;4.07;;;;;;;19.49;100.00;102328.19;5074416;28;20024;-37
2023/08/21 06:27:14;;;;;;;11.15;4.90;;;;;;;19.58;100.00;102325.84;5074119;28;20056;-37
2023/08/21 06:29:40;;;;;;;8.35;3.92;;;;;;;19.63;100.00;102325.94;5073895;28;20090;-37
2023/08/21 06:32:05;;;;;;;5.75;3.15;;;;;;;19.75;100.00;102327.44;5074201;28;20111;-37
2023/08/21 06:34:31;;;;;;;8.82;3.67;;;;;;;19.76;100.00;102314.53;5073791;28;20020;-37
2023/08/21 06:36:56;;;;;;;7.40;3.55;;;;;;;19.89;100.00;102321.56;5073866;28;20452;-37
2023/08/21 06:39:22;;;;;;;5.80;3.53;;;;;;;19.98;100.00;102331.00;5073682;28;20059;-37
2023/08/21 06:41:47;;;;;;;7.03;3.45;;;;;;;20.03;100.00;102328.31;5074038;28;20495;-37
2023/08/21 06:44:12;;;;;;;7.18;3.00;;;;;;;20.13;100.00;102327.59;5073758;28;20025;-37
2023/08/21 06:46:38;;;;;;;6.28;3.50;;;;;;;20.19;100.00;102332.84;5073358;28;20059;-37
2023/08/21 06:49:03;;;;;;;6.07;3.47;;;;;;;20.22;100.00;102324.13;5073662;28;20028;-37
2023/08/21 06:51:29;;;;;;;8.25;3.78;;;;;;;20.22;100.00;102332.34;5074096;28;20025;-37
2023/08/21 06:53:54;;;;;;;7.07;3.05;;;;;;;20.28;100.00;102320.31;5073225;28;20047;-37
2023/08/21 06:56:19;;;;;;;6.88;3.25;;;;;;;20.30;100.00;102329.16;5073347;28;20121;-37
2023/08/21 06:58:45;;;;;;;5.93;3.30;;;;;;;20.38;100.00;102327.00;5074135;28;20045;-37
2023/08/21 07:01:10;;;;;;;6.78;3.20;;;;;;;20.44;100.00;102329.53;5073771;28;20064;-37
2023/08/21 07:03:35;;;;;;;6.85;3.20;;;;;;;20.49;100.00;102324.09;5073258;28;20024;-37
2023/08/21 07:06:01;;;;;;;7.93;3.05;;;;;;;20.57;100.00;102339.28;5073412;28;20035;-37
2023/08/21 07:08:28;;;;;;;9.27;3.35;;;;;;;20.50;100.00;102345.00;5074202;28;20326;-37
2023/08/21 07:10:54;;;;;;;7.53;2.85;;;;;;;20.53;100.00;102336.22;5073591;28;20104;-37
2023/08/21 07:13:19;;;;;;;7.40;2.55;;;;;;;20.66;100.00;102336.88;5073898;28;20404;-38
2023/08/21 07:15:46;;;;;;;7.30;2.97;;;;;;;20.73;100.00;102337.47;5073284;28;20107;-38
2023/08/21 07:18:11;;;;;;;5.57;2.67;;;;;;;20.76;100.00;102326.78;5073511;28;20051;-38
2023/08/21 07:20:36;;;;;;;6.07;2.88;;;;;;;20.85;100.00;102329.06;5075188;28;20028;-38
2023/08/21 07:23:02;;;;;;;5.90;2.70;;;;;;;20.99;100.00;102335.75;5077474;28;20052;-38
2023/08/21 07:25:30;;;;;;;8.13;2.75;;;;;;;21.06;100.00;102330.84;5077228;28;20435;-38
2023/08/21 07:27:56;;;;;;;6.13;2.78;;;;;;;21.12;100.00;102335.28;5077587;28;20112;-36
2023/08/21 07:30:22;;;;;;;9.10;2.72;;;;;;;21.20;100.00;102328.47;5076871;28;20368;-37
2023/08/21 07:32:48;;;;;;;6.57;2.90;;;;;;;21.21;100.00;102332.84;5077443;28;20180;-37
2023/08/21 07:35:13;;;;;;;7.32;2.83;;;;;;;21.33;100.00;102339.84;5076763;28;20056;-37
2023/08/21 07:37:40;;;;;;;6.18;2.35;;;;;;;21.43;99.75;102341.00;5077274;28;20020;-37
2023/08/21 07:40:06;;;;;;;8.98;3.00;;;;;;;21.41;100.00;102334.91;5076713;28;20021;-37
2023/08/21 07:42:32;;;;;;;7.85;2.47;;;;;;;21.48;100.00;102333.59;5077447;28;20025;-37
2023/08/21 07:44:57;;;;;;;5.25;2.63;;;;;;;21.60;100.00;102336.94;5076871;28;20372;-37
2023/08/21 07:47:22;;;;;;;6.28;2.63;;;;;;;21.53;96.87;102349.31;5076861;28;20368;-37
2023/08/21 07:49:48;;;;;;;4.95;2.28;;;;;;;21.53;98.38;102335.53;5076798;28;20021;-37
2023/08/21 07:52:13;;;;;;;8.00;2.70;;;;;;;21.54;100.00;102337.19;5076766;28;20082;-36
2023/08/21 07:54:38;;;;;;;4.45;2.50;;;;;;;21.54;99.18;102338.00;5077432;28;20103;-36
2023/08/21 07:57:04;;;;;;;5.97;2.88;;;;;;;21.52;98.68;102334.72;5077016;28;20077;-36
2023/08/21 07:59:29;;;;;;;4.78;2.40;;;;;;;21.42;93.99;102329.13;5076992;28;20126;-36
2023/08/21 08:01:55;;;;;;;4.88;2.33;;;;;;;21.51;97.55;102338.53;5076842;28;20025;-36
2023/08/21 08:04:21;;;;;;;5.40;2.25;;;;;;;21.54;98.08;102340.75;5076458;28;20024;-36
2023/08/21 08:06:46;;;;;;;5.93;2.45;;;;;;;21.57;96.13;102336.66;5076502;28;20029;-37
2023/08/21 08:09:11;;;;;;;7.72;2.67;;;;;;;21.64;97.53;102337.22;5077206;28;20115;-37
2023/08/21 08:11:37;;;;;;;5.72;2.47;;;;;;;21.68;94.93;102356.78;5076987;28;20033;-36
2023/08/21 08:14:02;;;;;;;4.93;2.20;;;;;;;21.80;93.56;102349.13;5076076;28;20020;-37
2023/08/21 08:16:27;;;;;;;5.90;2.33;;;;;;;21.82;94.79;102342.25;5076564;28;20025;-36
2023/08/21 08:18:53;;;;;;;5.45;2.10;;;;;;;21.93;95.64;102345.03;5075854;28;20041;-44
2023/08/21 08:21:19;;;;;;;5.57;1.98;;;;;;;21.90;90.84;102345.56;5075965;28;20021;-37
2023/08/21 08:23:44;;;;;;;6.68;2.50;;;;;;;21.93;91.12;102361.56;5077018;28;20040;-37
2023/08/21 08:26:09;;;;;;;8.55;2.60;;;;;;;21.95;92.32;102362.94;5076751;28;20449;-36
2023/08/21 08:28:35;;;;;;;5.22;2.00;;;;;;;21.80;91.62;102336.19;5075803;28;20024;-36
2023/08/21 08:31:00;;;;;;;5.55;2.17;;;;;;;22.06;91.19;102353.63;5075653;28;20020;-37
2023/08/21 08:33:26;;;;;;;6.10;2.25;;;;;;;22.22;93.90;102354.50;5075681;28;20081;-36
2023/08/21 08:35:52;;;;;;;6.50;2.17;;;;;;;22.40;93.07;102347.66;5076045;28;20020;-36
2023/08/21 08:38:18;;;;;;;7.95;2.03;;;;;;;22.60;92.07;102352.34;5075900;28;20126;-36
2023/08/21 08:40:46;;;;;;;5.88;2.13;;;;;;;22.65;90.14;102349.56;5075619;28;20028;-37
2023/08/21 08:43:12;;;;;;;6.07;1.95;;;;;;;22.65;93.98;102341.31;5076163;28;20021;-37
2023/08/21 08:45:38;;;;;;;8.13;2.10;;;;;;;22.75;92.02;102349.56;5075801;28;20032;-37
2023/08/21 08:48:04;;;;;;;8.27;2.33;;;;;;;22.94;91.73;102344.34;5076611;28;20025;-37
2023/08/21 08:50:31;;;;;;;5.70;1.73;;;;;;;23.15;90.48;102358.09;5075715;28;20030;-36
2023/08/21 08:52:58;;;;;;;5.07;1.45;;;;;;;23.34;82.83;102346.19;5076007;28;20525;-37
2023/08/21 08:55:24;;;;;;;4.00;1.15;;;;;;;23.50;82.92;102357.16;5076149;28;20056;-36
2023/08/21 08:57:51;;;;;;;3.90;1.10;;;;;;;23.59;77.43;102345.25;5075235;28;20406;-37
2023/08/21 09:00:16;;;;;;;4.95;1.20;;;;;;;23.47;80.21;102346.66;5075507;28;20021;-36
2023/08/21 09:02:41;;;;;;;4.35;1.55;;;;;;;23.41;83.93;102350.56;5076040;28;20069;-37
2023/08/21 09:05:08;;;;;;;4.72;1.30;;;;;;;23.55;83.42;102348.84;5075447;28;20105;-37
2023/08/21 09:07:33;;;;;;;5.57;1.80;;;;;;;23.65;78.89;102343.31;5075905;28;20024;-37
2023/08/21 09:09:59;;;;;;;5.30;1.48;;;;;;;23.52;80.20;102338.38;5075304;28;20372;-37
2023/08/21 09:12:24;;;;;;;7.72;2.40;;;;;;;23.49;83.92;102338.94;5075579;28;20108;-37
2023/08/21 09:14:49;;;;;;;6.57;2.83;;;;;;;23.51;85.49;102342.25;5074972;28;20020;-37
2023/08/21 09:17:15;;;;;;;6.75;2.40;;;;;;;23.48;83.80;102343.66;5075204;28;20029;-37
2023/08/21 09:19:41;;;;;;;7.70;2.20;;;;;;;23.58;85.63;102340.03;5075055;28;20061;-37
2023/08/21 09:22:13;;;;;;;6.20;2.55;;;;;;;23.68;85.35;102331.72;5075145;28;20032;-37
2023/08/21 09:24:40;;;;;;;7.18;2.58;;;;;;;23.78;82.05;102348.25;5074994;28;20028;-37
2023/08/21 09:27:16;;;;;;;6.00;2.28;;;;;;;23.94;84.63;102339.88;5075534;28;20028;-37
2023/08/21 09:29:42;;;;;;;7.03;2.80;;;;;;;24.18;82.46;102328.94;5075471;28;20388;-37
2023/08/21 09:32:07;;;;;;;6.10;2.40;;;;;;;24.48;84.81;102338.97;5075704;28;20039;-37
2023/08/21 09:34:36;;;;;;;5.40;2.13;;;;;;;24.64;79.71;102329.41;5074519;28;20388;-37
2023/08/21 09:37:05;;;;;;;5.25;2.08;;;;;;;24.71;79.98;102332.69;5074999;28;20419;-37
2023/08/21 09:39:37;;;;;;;7.57;2.60;;;;;;;24.48;79.44;102337.03;5074614;28;20029;-37
2023/08/21 09:42:06;;;;;;;6.78;2.40;;;;;;;24.46;80.37;102335.69;5073644;28;20021;-37
2023/08/21 09:44:39;;;;;;;5.80;2.10;;;;;;;24.48;80.86;102341.72;5075125;28;20070;-37
2023/08/21 09:47:08;;;;;;;4.97;2.42;;;;;;;24.57;79.65;102342.78;5074906;28;20016;-37
2023/08/21 09:49:34;;;;;;;6.50;2.42;;;;;;;24.48;77.66;102342.56;5074799;28;20025;-37
2023/08/21 09:52:01;;;;;;;8.23;2.78;;;;;;;24.42;80.65;102340.13;5074741;28;20031;-37
2023/08/21 09:54:28;;;;;;;6.25;2.28;;;;;;;24.52;78.37;102334.50;5074629;28;20364;-37
2023/08/21 09:56:53;;;;;;;7.63;2.13;;;;;;;24.64;78.47;102344.09;5074962;28;20095;-37
2023/08/21 09:59:19;;;;;;;8.02;2.10;;;;;;;24.76;77.17;102335.41;5074338;28;20041;-37
2023/08/21 10:01:49;;;;;;;5.93;1.73;;;;;;;24.79;76.55;102340.38;5074867;28;20457;-37
2023/08/21 10:04:16;;;;;;;6.72;2.28;;;;;;;24.93;79.62;102335.78;5074252;28;20016;-37
2023/08/21 10:06:43;;;;;;;6.40;1.77;;;;;;;24.92;75.22;102331.38;5074529;28;20020;-37
2023/08/21 10:09:08;;;;;;;5.30;1.70;;;;;;;24.89;76.04;102328.38;5074193;28;20028;-37
2023/08/21 10:11:34;;;;;;;5.85;1.60;;;;;;;25.26;75.61;102326.88;5074700;28;20146;-37
2023/08/21 10:13:59;;;;;;;5.57;2.00;;;;;;;25.45;74.60;102325.00;5074870;28;20020;-37
2023/08/21 10:16:25;;;;;;;4.90;1.88;;;;;;;25.65;71.29;102313.66;5074125;28;20154;-37
2023/08/21 10:18:51;;;;;;;4.75;1.55;;;;;;;25.89;67.92;102319.16;5073691;28;20025;-37
2023/08/21 10:21:19;;;;;;;4.60;1.48;;;;;;;26.02;66.59;102311.25;5073760;28;20024;-37
2023/08/21 10:23:49;;;;;;;3.63;1.25;;;;;;;26.03;68.21;102310.13;5073940;28;20413;-37
2023/08/21 10:26:15;;;;;;;4.38;1.20;;;;;;;26.11;65.97;102320.53;5074772;28;20017;-37
2023/08/21 10:28:52;;;;;;;6.20;1.63;;;;;;;26.09;69.92;102312.50;5073575;28;20035;-37
2023/08/21 10:31:38;;;;;;;6.57;2.10;;;;;;;26.32;71.16;102315.47;5073630;28;20481;-37
2023/08/21 10:34:05;;;;;;;5.88;1.50;;;;;;;26.51;68.65;102312.69;5074688;28;20016;-37
2023/08/21 10:37:00;;;;;;;4.88;1.50;;;;;;;26.46;67.37;102316.38;5074044;28;20059;-37
2023/08/21 10:39:26;;;;;;;4.68;1.48;;;;;;;26.11;66.30;102309.44;5073919;28;20024;-37
2023/08/21 10:42:09;;;;;;;4.07;1.20;;;;;;;25.89;69.94;102312.81;5073986;28;20021;-37
2023/08/21 10:44:55;;;;;;;5.72;1.48;;;;;;;26.03;67.67;102313.72;5074005;28;20036;-37
2023/08/21 10:47:21;;;;;;;3.45;1.20;;;;;;;26.08;67.14;102312.81;5073755;28;20028;-37
2023/08/21 10:49:48;;;;;;;2.97;0.95;;;;;;;26.07;65.55;102313.94;5073650;28;20028;-37
2023/08/21 10:52:15;;;;;;;6.85;1.45;;;;;;;25.96;66.17;102317.97;5074479;28;20024;-37
2023/08/21 10:54:47;;;;;;;5.32;1.75;;;;;;;25.57;69.89;102319.03;5073371;28;20039;-37
2023/08/21 10:57:13;;;;;;;5.63;1.88;;;;;;;25.83;67.54;102325.09;5074036;28;20028;-37
2023/08/21 10:59:38;;;;;;;3.35;1.08;;;;;;;25.96;66.50;102313.25;5073100;28;20070;-37
2023/08/21 11:02:05;;;;;;;4.53;1.30;;;;;;;26.17;67.45;102311.00;5073322;28;20491;-37
2023/08/21 11:04:40;;;;;;;3.30;0.93;;;;;;;26.28;65.21;102312.47;5074061;28;20024;-37
2023/08/21 11:07:05;;;;;;;3.85;1.10;;;;;;;26.50;61.43;102316.59;5073817;28;20024;-37
2023/08/21 11:09:31;;;;;;;2.60;1.00;;;;;;;26.41;60.84;102311.72;5073368;28;20020;-37
2023/08/21 11:11:56;;;;;;;3.22;1.10;;;;;;;26.57;59.51;102312.31;5073486;28;20126;-38
2023/08/21 11:14:26;;;;;;;5.72;1.00;;;;;;;26.61;61.53;102313.34;5073096;28;20028;-37
2023/08/21 11:16:51;;;;;;;3.25;1.35;;;;;;;26.64;59.17;102309.94;5073441;28;20025;-37
2023/08/21 11:19:16;;;;;;;5.32;1.27;;;;;;;26.81;59.17;102306.59;5072916;28;20029;-37
2023/08/21 11:21:43;;;;;;;2.70;1.05;;;;;;;26.90;60.36;102293.66;5073649;28;20368;-37
2023/08/21 11:24:08;;;;;;;3.90;1.20;;;;;;;26.93;59.67;102301.34;5072935;28;20542;-37